createdAt,value
2023-05-27T00:02:03.388Z,57.30
2023-05-27T00:04:34.195Z,57.48
2023-05-27T00:07:05.172Z,57.66
2023-05-27T00:09:35.916Z,57.68
2023-05-27T00:12:07.283Z,57.77
2023-05-27T00:14:38.035Z,57.91
2023-05-27T00:17:08.779Z,58.12
2023-05-27T00:19:39.540Z,58.29
2023-05-27T00:22:10.265Z,58.36
2023-05-27T00:24:40.968Z,58.61
2023-05-27T00:27:12.728Z,58.76
2023-05-27T00:29:43.466Z,59.08
2023-05-27T00:32:14.532Z,58.88
2023-05-27T00:34:43.676Z,59.29
2023-05-27T00:37:14.440Z,59.33
2023-05-27T00:39:45.203Z,59.50
2023-05-27T00:42:16.536Z,59.47
2023-05-27T00:44:47.346Z,59.65
2023-05-27T00:47:18.533Z,59.59
2023-05-27T00:49:49.241Z,59.64
2023-05-27T00:52:19.910Z,59.76
2023-05-27T00:54:51.456Z,59.79
2023-05-27T00:57:22.645Z,59.90
2023-05-27T00:59:54.037Z,59.89
2023-05-27T01:02:24.854Z,59.86
2023-05-27T01:04:55.748Z,60.00
2023-05-27T01:07:33.987Z,60.05
2023-05-27T01:10:11.972Z,60.08
2023-05-27T01:12:50.115Z,60.22
2023-05-27T01:15:21.901Z,60.28
2023-05-27T01:17:57.162Z,60.20
2023-05-27T01:20:29.505Z,60.23
2023-05-27T01:23:00.819Z,60.45
2023-05-27T01:25:33.356Z,60.37
2023-05-27T01:28:04.043Z,60.47
2023-05-27T01:30:34.897Z,60.64
2023-05-27T01:33:09.447Z,60.62
2023-05-27T01:35:45.516Z,60.68
2023-05-27T01:38:19.282Z,60.69
2023-05-27T01:40:51.853Z,60.63
2023-05-27T01:43:23.184Z,60.59
2023-05-27T01:45:54.324Z,60.69
2023-05-27T01:48:25.240Z,60.84
2023-05-27T01:50:56.015Z,60.90
2023-05-27T01:53:26.728Z,60.98
2023-05-27T01:55:57.493Z,61.16
2023-05-27T01:58:28.235Z,61.29
2023-05-27T02:00:58.998Z,61.47
2023-05-27T02:03:30.118Z,61.40
2023-05-27T02:06:00.875Z,61.48
2023-05-27T02:08:31.548Z,61.50
2023-05-27T02:11:02.254Z,61.56
2023-05-27T02:13:32.940Z,61.66
2023-05-27T02:16:03.706Z,61.76
2023-05-27T02:18:34.805Z,61.64
2023-05-27T02:21:04.076Z,61.71
2023-05-27T02:23:34.856Z,61.70
2023-05-27T02:26:05.645Z,61.70
2023-05-27T02:28:36.384Z,61.77
2023-05-27T02:31:07.251Z,61.73
2023-05-27T02:33:38.026Z,61.84
2023-05-27T02:36:09.530Z,61.78
2023-05-27T02:38:40.202Z,61.90
2023-05-27T02:41:10.974Z,61.89
2023-05-27T02:43:41.739Z,61.91
2023-05-27T02:46:12.536Z,61.87
2023-05-27T02:48:43.255Z,61.99
2023-05-27T02:51:14.296Z,61.97
2023-05-27T02:53:43.494Z,61.96
2023-05-27T02:56:14.210Z,61.85
2023-05-27T02:58:44.857Z,61.89
2023-05-27T03:01:15.578Z,61.90
2023-05-27T03:03:46.313Z,61.88
2023-05-27T03:06:17.206Z,61.79
2023-05-27T03:08:47.897Z,61.67
2023-05-27T03:11:18.800Z,61.60
2023-05-27T03:13:49.535Z,61.55
2023-05-27T03:16:20.302Z,61.44
2023-05-27T03:18:50.985Z,61.35
2023-05-27T03:21:21.861Z,61.32
2023-05-27T03:23:52.574Z,61.26
2023-05-27T03:26:23.309Z,61.24
2023-05-27T03:28:53.958Z,61.29
2023-05-27T03:31:24.794Z,61.20
2023-05-27T03:33:55.517Z,61.03
2023-05-27T03:36:26.379Z,61.09
2023-05-27T03:38:58.236Z,60.96
2023-05-27T03:41:29.020Z,60.81
2023-05-27T03:43:59.753Z,60.57
2023-05-27T03:46:30.536Z,60.58
2023-05-27T03:49:01.353Z,60.56
2023-05-27T03:51:32.096Z,60.35
2023-05-27T03:54:02.868Z,60.20
2023-05-27T03:56:33.695Z,60.19
2023-05-27T03:59:04.826Z,60.00
2023-05-27T04:01:35.602Z,59.87
2023-05-27T04:04:06.330Z,59.79
2023-05-27T04:06:37.162Z,59.79
2023-05-27T04:09:07.946Z,58.49
2023-05-27T04:11:38.668Z,56.87
2023-05-27T04:14:09.415Z,55.24
2023-05-27T04:16:38.627Z,53.57
2023-05-27T04:19:09.514Z,52.14
2023-05-27T04:21:40.273Z,51.02
2023-05-27T04:24:11.044Z,49.74
2023-05-27T04:26:41.822Z,48.64
2023-05-27T04:29:12.477Z,47.73
2023-05-27T04:31:43.254Z,46.86
2023-05-27T04:34:13.992Z,45.54
2023-05-27T04:36:45.392Z,44.73
2023-05-27T04:39:16.132Z,43.76
2023-05-27T04:41:46.913Z,43.26
2023-05-27T04:44:17.703Z,42.52
2023-05-27T04:46:48.720Z,41.85
2023-05-27T04:49:19.634Z,41.10
2023-05-27T04:51:50.468Z,37.98
2023-05-27T04:54:21.225Z,37.55
2023-05-27T04:56:52.030Z,37.76
2023-05-27T04:59:22.768Z,38.54
2023-05-27T05:01:53.999Z,37.57
2023-05-27T05:04:24.797Z,37.34
2023-05-27T05:06:55.498Z,36.74
2023-05-27T05:09:26.205Z,35.94
2023-05-27T05:11:56.874Z,35.46
2023-05-27T05:14:27.564Z,35.79
2023-05-27T05:16:58.403Z,33.75
2023-05-27T05:19:29.097Z,33.17
2023-05-27T05:21:59.822Z,34.30
2023-05-27T05:24:30.606Z,34.89
2023-05-27T05:27:01.647Z,34.04
2023-05-27T05:29:32.359Z,34.09
2023-05-27T05:32:03.186Z,35.58
2023-05-27T05:34:34.125Z,35.14
2023-05-27T05:37:05.128Z,36.37
2023-05-27T05:39:35.841Z,36.29
2023-05-27T05:42:07.108Z,36.07
2023-05-27T05:44:37.950Z,36.95
2023-05-27T05:47:08.793Z,38.07
2023-05-27T05:49:39.453Z,39.26
2023-05-27T05:52:10.262Z,40.25
2023-05-27T05:54:41.072Z,40.91
2023-05-27T05:57:12.019Z,41.48
2023-05-27T05:59:42.779Z,41.71
2023-05-27T06:02:13.891Z,41.86
2023-05-27T06:04:45.251Z,42.64
2023-05-27T06:07:16.127Z,42.78
2023-05-27T06:09:47.174Z,42.97
2023-05-27T06:12:18.109Z,43.75
2023-05-27T06:14:48.800Z,43.86
2023-05-27T06:17:17.943Z,44.75
2023-05-27T06:19:48.779Z,45.02
2023-05-27T06:22:17.922Z,45.03
2023-05-27T06:24:48.623Z,45.64
2023-05-27T06:27:19.370Z,45.82
2023-05-27T06:29:48.607Z,45.89
2023-05-27T06:32:19.298Z,46.24
2023-05-27T06:34:50.741Z,46.23
2023-05-27T06:37:21.550Z,46.91
2023-05-27T06:39:52.298Z,46.67
2023-05-27T06:42:21.375Z,47.41
2023-05-27T06:44:52.058Z,47.29
2023-05-27T06:47:22.769Z,47.96
2023-05-27T06:49:53.560Z,47.62
2023-05-27T06:52:22.694Z,47.01
2023-05-27T06:54:53.706Z,46.79
2023-05-27T06:57:24.347Z,46.83
2023-05-27T06:59:53.649Z,46.81
2023-05-27T07:02:24.338Z,46.60
2023-05-27T07:04:55.320Z,46.90
2023-05-27T07:07:27.432Z,46.71
2023-05-27T07:09:58.173Z,46.28
2023-05-27T07:12:27.313Z,46.68
2023-05-27T07:14:58.189Z,46.85
2023-05-27T07:17:28.913Z,46.16
2023-05-27T07:19:59.627Z,46.12
2023-05-27T07:22:30.344Z,46.39
2023-05-27T07:25:04.009Z,46.30
2023-05-27T07:27:34.742Z,46.73
2023-05-27T07:30:08.240Z,46.37
2023-05-27T07:32:38.999Z,46.42
2023-05-27T07:35:09.936Z,46.57
2023-05-27T07:37:39.047Z,46.86
2023-05-27T07:40:12.145Z,46.38
2023-05-27T07:42:42.866Z,46.54
2023-05-27T07:45:13.945Z,46.08
2023-05-27T07:47:44.716Z,45.29
2023-05-27T07:50:13.775Z,45.37
2023-05-27T07:52:44.643Z,45.25
2023-05-27T07:55:15.477Z,45.27
2023-05-27T07:57:46.198Z,44.82
2023-05-27T08:00:15.757Z,43.93
2023-05-27T08:02:46.585Z,44.05
2023-05-27T08:05:17.389Z,44.04
2023-05-27T08:07:46.523Z,43.93
2023-05-27T08:10:17.337Z,43.75
2023-05-27T08:12:48.057Z,43.71
2023-05-27T08:15:18.915Z,43.36
2023-05-27T08:17:49.650Z,43.03
2023-05-27T08:20:21.965Z,42.03
2023-05-27T08:22:52.710Z,43.10
2023-05-27T08:25:23.589Z,42.61
2023-05-27T08:27:55.930Z,41.76
2023-05-27T08:30:26.632Z,41.92
2023-05-27T08:32:57.426Z,42.08
2023-05-27T08:35:28.449Z,41.60
2023-05-27T08:37:59.290Z,41.69
2023-05-27T08:40:30.041Z,41.51
2023-05-27T08:43:00.997Z,41.14
2023-05-27T08:45:31.722Z,40.31
2023-05-27T08:48:00.832Z,40.25
2023-05-27T08:50:31.712Z,40.80
2023-05-27T08:53:04.169Z,40.66
2023-05-27T08:55:43.971Z,40.66
2023-05-27T08:58:15.635Z,39.99
2023-05-27T09:00:49.245Z,39.53
2023-05-27T09:03:19.993Z,39.56
2023-05-27T09:05:50.928Z,38.65
2023-05-27T09:08:23.604Z,39.16
2023-05-27T09:10:57.557Z,38.44
2023-05-27T09:13:32.144Z,39.10
2023-05-27T09:16:04.560Z,38.92
2023-05-27T09:18:36.829Z,38.06
2023-05-27T09:21:07.682Z,38.54
2023-05-27T09:23:40.984Z,39.37
2023-05-27T09:26:12.878Z,40.44
2023-05-27T09:28:43.661Z,40.75
2023-05-27T09:31:14.431Z,40.42
2023-05-27T09:33:45.162Z,40.37
2023-05-27T09:36:14.372Z,40.31
2023-05-27T09:38:46.054Z,40.32
2023-05-27T09:41:24.097Z,39.61
2023-05-27T09:43:57.776Z,39.77
2023-05-27T09:46:29.164Z,40.51
2023-05-27T09:49:00.984Z,40.13
2023-05-27T09:51:32.476Z,40.63
2023-05-27T09:54:04.665Z,40.96
2023-05-27T09:56:36.315Z,40.54
2023-05-27T09:59:07.024Z,40.08
2023-05-27T10:01:39.563Z,39.43
2023-05-27T10:04:10.760Z,39.38
2023-05-27T10:06:41.833Z,39.96
2023-05-27T10:09:12.523Z,39.21
2023-05-27T10:11:42.415Z,38.95
2023-05-27T10:14:13.547Z,38.48
2023-05-27T10:16:53.975Z,38.95
2023-05-27T10:19:25.131Z,38.43
2023-05-27T10:21:56.270Z,38.72
2023-05-27T10:24:48.737Z,38.76
2023-05-27T10:27:19.823Z,37.78
2023-05-27T10:29:59.595Z,37.62
2023-05-27T10:32:31.010Z,37.58
2023-05-27T10:35:02.108Z,37.57
2023-05-27T10:37:36.957Z,36.96
2023-05-27T10:40:10.937Z,37.47
2023-05-27T10:42:42.850Z,37.68
2023-05-27T10:45:13.642Z,37.18
2023-05-27T10:47:47.197Z,36.51
2023-05-27T10:50:18.107Z,36.65
2023-05-27T10:52:51.100Z,35.79
2023-05-27T10:55:22.982Z,35.79
2023-05-27T10:57:53.987Z,35.22
2023-05-27T11:00:27.295Z,35.54
2023-05-27T11:02:58.348Z,34.58
2023-05-27T11:05:31.534Z,33.98
2023-05-27T11:08:03.004Z,34.78
2023-05-27T11:10:33.841Z,34.74
2023-05-27T11:13:04.596Z,35.31
2023-05-27T11:15:35.255Z,34.88
2023-05-27T11:18:04.931Z,33.92
2023-05-27T11:20:39.353Z,34.75
2023-05-27T11:23:10.119Z,34.50
2023-05-27T11:25:45.553Z,35.09
2023-05-27T11:28:19.390Z,35.45
2023-05-27T11:30:53.494Z,34.92
2023-05-27T11:33:37.416Z,35.00
2023-05-27T11:36:12.298Z,35.55
2023-05-27T11:38:56.089Z,35.58
2023-05-27T11:41:28.551Z,34.17
2023-05-27T11:44:00.698Z,34.65
2023-05-27T11:46:38.268Z,33.76
2023-05-27T11:49:11.101Z,33.66
2023-05-27T11:51:43.543Z,33.01
2023-05-27T11:54:20.664Z,33.96
2023-05-27T11:56:52.029Z,33.61
2023-05-27T11:59:24.936Z,33.42
2023-05-27T12:01:55.726Z,34.00
2023-05-27T12:04:26.568Z,33.62
2023-05-27T12:06:57.846Z,34.19
2023-05-27T12:09:30.099Z,34.26
2023-05-27T12:12:00.788Z,34.73
2023-05-27T12:14:31.654Z,34.62
2023-05-27T12:17:02.388Z,33.96
2023-05-27T12:19:33.193Z,34.24
2023-05-27T12:22:04.084Z,33.85
2023-05-27T12:24:34.769Z,34.07
2023-05-27T12:27:05.934Z,34.05
2023-05-27T12:29:36.783Z,32.45
2023-05-27T12:32:07.611Z,32.61
2023-05-27T12:34:38.378Z,31.64
2023-05-27T12:37:10.910Z,32.77
2023-05-27T12:39:43.388Z,32.03
2023-05-27T12:42:14.153Z,30.94
2023-05-27T12:44:44.958Z,32.16
2023-05-27T12:47:15.700Z,32.57
2023-05-27T12:49:46.795Z,31.18
2023-05-27T12:52:17.605Z,30.16
2023-05-27T12:54:48.353Z,30.82
2023-05-27T12:57:19.021Z,30.67
2023-05-27T12:59:49.748Z,30.69
2023-05-27T13:02:20.472Z,30.30
2023-05-27T13:04:51.604Z,30.44
2023-05-27T13:07:24.674Z,30.16
2023-05-27T13:09:55.416Z,29.77
2023-05-27T13:12:26.115Z,30.38
2023-05-27T13:14:58.544Z,30.41
2023-05-27T13:17:29.621Z,30.27
2023-05-27T13:20:00.766Z,31.22
2023-05-27T13:22:31.732Z,31.10
2023-05-27T13:25:02.583Z,30.42
2023-05-27T13:27:33.628Z,31.00
2023-05-27T13:30:04.634Z,30.49
2023-05-27T13:32:35.347Z,30.11
2023-05-27T13:35:07.179Z,29.71
2023-05-27T13:37:37.852Z,30.72
2023-05-27T13:40:10.194Z,31.23
2023-05-27T13:42:41.778Z,31.46
2023-05-27T13:45:12.981Z,30.71
2023-05-27T13:47:44.305Z,30.16
2023-05-27T13:50:15.118Z,30.44
2023-05-27T13:52:45.957Z,28.94
2023-05-27T13:55:22.811Z,28.90
2023-05-27T13:57:53.645Z,29.34
2023-05-27T14:00:24.626Z,28.47
2023-05-27T14:02:55.790Z,27.98
2023-05-27T14:05:26.995Z,28.05
2023-05-27T14:07:57.665Z,29.02
2023-05-27T14:10:28.321Z,28.69
2023-05-27T14:12:59.098Z,29.62
2023-05-27T14:15:30.196Z,30.33
2023-05-27T14:18:00.950Z,30.16
2023-05-27T14:20:31.978Z,29.98
2023-05-27T14:23:02.737Z,28.94
2023-05-27T14:25:33.485Z,27.96
2023-05-27T14:28:04.279Z,27.46
2023-05-27T14:30:35.083Z,28.15
2023-05-27T14:33:06.294Z,28.37
2023-05-27T14:35:37.627Z,28.60
2023-05-27T14:38:09.058Z,29.06
2023-05-27T14:40:40.161Z,28.50
2023-05-27T14:43:10.866Z,28.57
2023-05-27T14:45:43.059Z,28.76
2023-05-27T14:48:13.735Z,28.37
2023-05-27T14:50:44.850Z,28.74
2023-05-27T14:53:15.631Z,28.67
2023-05-27T14:55:46.541Z,28.72
2023-05-27T14:58:17.651Z,29.26
2023-05-27T15:00:48.671Z,27.74
2023-05-27T15:03:19.628Z,28.43
2023-05-27T15:05:50.686Z,28.44
2023-05-27T15:08:21.587Z,28.35
2023-05-27T15:10:52.789Z,29.27
2023-05-27T15:13:23.530Z,29.18
2023-05-27T15:15:54.574Z,28.43
2023-05-27T15:18:25.487Z,27.41
2023-05-27T15:20:56.341Z,28.24
2023-05-27T15:23:27.010Z,27.52
2023-05-27T15:25:56.122Z,28.27
2023-05-27T15:28:26.854Z,28.16
2023-05-27T15:30:57.581Z,27.87
2023-05-27T15:33:28.285Z,28.11
2023-05-27T15:35:59.260Z,28.35
2023-05-27T15:38:30.052Z,28.34
2023-05-27T15:41:01.357Z,27.80
2023-05-27T15:43:32.168Z,28.08
2023-05-27T15:46:04.949Z,28.36
2023-05-27T15:48:36.137Z,28.28
2023-05-27T15:51:05.274Z,28.40
2023-05-27T15:53:36.048Z,28.22
2023-05-27T15:56:07.084Z,28.19
2023-05-27T15:58:38.303Z,27.63
2023-05-27T16:01:09.417Z,27.82
2023-05-27T16:03:40.154Z,27.93
2023-05-27T16:06:12.431Z,27.81
2023-05-27T16:08:43.314Z,28.09
2023-05-27T16:11:12.991Z,28.34
2023-05-27T16:13:43.839Z,28.51
2023-05-27T16:16:13.384Z,27.98
2023-05-27T16:18:44.105Z,28.14
2023-05-27T16:21:14.942Z,28.41
2023-05-27T16:23:50.387Z,28.49
2023-05-27T16:26:27.001Z,28.35
2023-05-27T16:28:57.684Z,28.42
2023-05-27T16:31:26.984Z,28.86
2023-05-27T16:33:57.752Z,29.22
2023-05-27T16:36:29.229Z,28.69
2023-05-27T16:38:59.998Z,28.98
2023-05-27T16:41:30.832Z,29.06
2023-05-27T16:44:01.618Z,29.27
2023-05-27T16:46:32.516Z,29.42
2023-05-27T16:49:03.467Z,29.08
2023-05-27T16:51:34.248Z,29.42
2023-05-27T16:54:05.317Z,29.63
2023-05-27T16:56:36.069Z,29.87
2023-05-27T16:59:07.279Z,29.50
2023-05-27T17:01:38.328Z,29.42
2023-05-27T17:04:09.414Z,29.53
2023-05-27T17:06:40.329Z,29.65
2023-05-27T17:09:11.007Z,29.73
2023-05-27T17:11:40.213Z,29.36
2023-05-27T17:14:10.983Z,29.71
2023-05-27T17:16:41.807Z,29.84
2023-05-27T17:19:12.880Z,29.65
2023-05-27T17:21:43.642Z,29.61
2023-05-27T17:24:14.566Z,29.61
2023-05-27T17:26:45.548Z,29.53
2023-05-27T17:29:16.509Z,29.58
2023-05-27T17:31:47.720Z,29.51
2023-05-27T17:34:18.810Z,29.77
2023-05-27T17:36:50.731Z,30.09
2023-05-27T17:39:22.489Z,30.20
2023-05-27T17:41:54.168Z,29.97
2023-05-27T17:44:25.278Z,29.64
2023-05-27T17:46:57.058Z,30.15
2023-05-27T17:49:28.027Z,30.02
2023-05-27T17:52:02.234Z,29.84
2023-05-27T17:54:36.338Z,29.93
2023-05-27T17:57:07.540Z,30.15
2023-05-27T17:59:38.336Z,30.06
2023-05-27T18:02:09.164Z,30.31
2023-05-27T18:04:40.722Z,30.65
2023-05-27T18:07:12.371Z,30.85
2023-05-27T18:09:43.183Z,30.91
2023-05-27T18:12:14.258Z,31.12
2023-05-27T18:14:45.344Z,31.55
2023-05-27T18:17:16.782Z,31.77
2023-05-27T18:19:45.919Z,31.93
2023-05-27T18:22:16.783Z,32.26
2023-05-27T18:24:45.931Z,32.46
2023-05-27T18:27:17.795Z,32.72
2023-05-27T18:29:49.255Z,32.87
2023-05-27T18:32:21.945Z,33.29
2023-05-27T18:34:52.942Z,33.41
2023-05-27T18:37:23.994Z,33.81
2023-05-27T18:39:55.000Z,34.29
2023-05-27T18:42:26.160Z,34.14
2023-05-27T18:44:57.180Z,34.34
2023-05-27T18:47:28.022Z,34.67
2023-05-27T18:50:00.123Z,34.81
2023-05-27T18:52:31.210Z,35.37
2023-05-27T18:55:02.464Z,35.42
2023-05-27T18:57:34.353Z,35.51
2023-05-27T19:00:08.078Z,35.57
2023-05-27T19:02:39.920Z,35.74
2023-05-27T19:05:13.223Z,35.80
2023-05-27T19:07:44.285Z,36.17
2023-05-27T19:10:15.303Z,36.20
2023-05-27T19:12:46.365Z,36.46
2023-05-27T19:15:17.520Z,36.76
2023-05-27T19:17:49.299Z,36.79
2023-05-27T19:20:20.885Z,37.36
2023-05-27T19:22:51.989Z,37.13
2023-05-27T19:25:23.667Z,37.21
2023-05-27T19:27:55.476Z,37.54
2023-05-27T19:30:29.408Z,37.60
2023-05-27T19:33:00.586Z,37.94
2023-05-27T19:35:30.200Z,37.87
2023-05-27T19:38:01.585Z,38.32
2023-05-27T19:40:35.067Z,38.50
2023-05-27T19:43:05.785Z,38.71
2023-05-27T19:45:36.817Z,38.93
2023-05-27T19:48:07.785Z,39.60
2023-05-27T19:50:42.251Z,39.91
2023-05-27T19:53:13.501Z,40.14
2023-05-27T19:55:45.743Z,40.39
2023-05-27T19:58:17.500Z,40.73
2023-05-27T20:00:49.547Z,40.80
2023-05-27T20:03:21.419Z,41.11
2023-05-27T20:05:52.560Z,41.19
2023-05-27T20:08:23.793Z,41.25
2023-05-27T20:10:54.936Z,41.76
2023-05-27T20:13:26.080Z,41.79
2023-05-27T20:15:58.360Z,42.04
2023-05-27T20:18:30.117Z,42.41
2023-05-27T20:21:01.304Z,42.54
2023-05-27T20:23:32.079Z,42.57
2023-05-27T20:26:01.396Z,42.53
2023-05-27T20:28:32.824Z,42.70
2023-05-27T20:31:03.684Z,43.22
2023-05-27T20:33:34.597Z,43.56
2023-05-27T20:36:03.988Z,43.55
2023-05-27T20:38:34.726Z,43.85
2023-05-27T20:41:05.943Z,44.15
2023-05-27T20:43:37.854Z,44.22
2023-05-27T20:46:08.703Z,44.50
2023-05-27T20:48:37.884Z,44.46
2023-05-27T20:51:08.799Z,44.97
2023-05-27T20:53:37.968Z,45.21
2023-05-27T20:56:08.881Z,45.38
2023-05-27T20:58:38.084Z,45.39
2023-05-27T21:01:09.840Z,45.56
2023-05-27T21:03:40.654Z,45.89
2023-05-27T21:06:11.417Z,45.70
2023-05-27T21:08:42.237Z,46.06
2023-05-27T21:11:13.243Z,46.30
2023-05-27T21:13:46.237Z,46.71
2023-05-27T21:16:19.155Z,46.91
2023-05-27T21:18:50.095Z,47.18
2023-05-27T21:21:21.192Z,47.41
2023-05-27T21:23:53.438Z,47.96
2023-05-27T21:26:24.169Z,47.94
2023-05-27T21:28:55.279Z,47.88
2023-05-27T21:31:24.565Z,47.80
2023-05-27T21:33:55.313Z,48.11
2023-05-27T21:36:26.057Z,48.20
2023-05-27T21:38:56.889Z,48.53
2023-05-27T21:41:27.700Z,48.69
2023-05-27T21:44:25.623Z,48.87
2023-05-27T21:46:56.360Z,48.75
2023-05-27T21:49:28.628Z,49.13
2023-05-27T21:52:00.280Z,49.27
2023-05-27T21:54:31.100Z,49.34
2023-05-27T21:57:02.029Z,49.40
2023-05-27T21:59:33.027Z,49.52
2023-05-27T22:02:04.668Z,49.76
2023-05-27T22:04:35.612Z,49.87
2023-05-27T22:07:06.955Z,50.10
2023-05-27T22:09:40.298Z,50.11
2023-05-27T22:12:11.253Z,50.14
2023-05-27T22:14:41.973Z,50.30
2023-05-27T22:17:12.680Z,50.52
2023-05-27T22:19:43.455Z,50.60
2023-05-27T22:22:14.192Z,50.68
2023-05-27T22:24:44.999Z,50.76
2023-05-27T22:27:14.375Z,50.87
2023-05-27T22:29:45.197Z,51.39
2023-05-27T22:32:16.007Z,51.33
2023-05-27T22:34:45.257Z,51.30
2023-05-27T22:37:15.931Z,51.46
2023-05-27T22:39:46.670Z,51.68
2023-05-27T22:42:17.468Z,52.02
2023-05-27T22:44:48.395Z,52.09
2023-05-27T22:47:19.155Z,52.23
2023-05-27T22:49:49.851Z,52.30
2023-05-27T22:52:21.779Z,52.54
2023-05-27T22:54:52.648Z,52.57
2023-05-27T22:57:23.353Z,52.69
2023-05-27T22:59:54.084Z,52.87
2023-05-27T23:02:24.893Z,53.00
2023-05-27T23:04:54.238Z,53.36
2023-05-27T23:07:24.975Z,53.73
2023-05-27T23:09:55.773Z,53.66
2023-05-27T23:12:26.501Z,53.88
2023-05-27T23:14:57.301Z,54.00
2023-05-27T23:17:28.020Z,53.72
2023-05-27T23:19:58.763Z,53.91
2023-05-27T23:22:29.461Z,53.92
2023-05-27T23:25:00.206Z,53.97
2023-05-27T23:27:30.851Z,54.00
2023-05-27T23:30:01.587Z,54.29
2023-05-27T23:32:32.858Z,54.39
2023-05-27T23:35:03.823Z,54.59
2023-05-27T23:37:34.472Z,54.71
2023-05-27T23:40:05.914Z,54.84
2023-05-27T23:42:36.562Z,54.92
2023-05-27T23:45:09.181Z,55.23
2023-05-27T23:47:39.923Z,55.18
2023-05-27T23:50:11.326Z,55.26
2023-05-27T23:52:42.010Z,55.38
2023-05-27T23:55:19.602Z,55.46
2023-05-27T23:57:50.336Z,55.52
